createdAt,value
2022-12-23T00:01:14.649Z,97554.10
2022-12-23T00:03:47.413Z,97555.78
2022-12-23T00:06:17.959Z,97553.34
2022-12-23T00:08:46.946Z,97557.36
2022-12-23T00:11:20.910Z,97552.86
2022-12-23T00:14:08.224Z,97557.70
2022-12-23T00:16:37.563Z,97555.44
2022-12-23T00:19:06.175Z,97557.85
2022-12-23T00:21:36.651Z,97555.20
2022-12-23T00:24:07.926Z,97558.79
2022-12-23T00:26:37.087Z,97563.11
2022-12-23T00:29:06.655Z,97560.14
2022-12-23T00:31:36.660Z,97559.19
2022-12-23T00:34:04.821Z,97556.19
2022-12-23T00:36:33.051Z,97559.44
2022-12-23T00:39:20.262Z,97556.13
2022-12-23T00:42:07.071Z,97552.09
2022-12-23T00:44:36.392Z,97553.27
2022-12-23T00:47:04.887Z,97555.17
2022-12-23T00:49:45.067Z,97554.66
2022-12-23T00:52:18.764Z,97549.44
2022-12-23T00:54:48.079Z,97545.95
2022-12-23T00:57:16.297Z,97545.11
2022-12-23T00:59:44.552Z,97544.01
2022-12-23T01:02:31.614Z,97540.14
2022-12-23T01:05:18.737Z,97540.59
2022-12-23T01:07:46.925Z,97539.62
2022-12-23T01:10:15.232Z,97536.23
2022-12-23T01:12:43.369Z,97538.89
2022-12-23T01:15:11.503Z,97536.27
2022-12-23T01:17:39.650Z,97537.38
2022-12-23T01:20:08.910Z,97535.36
2022-12-23T01:22:37.280Z,97531.91
2022-12-23T01:25:06.206Z,97532.99
2022-12-23T01:27:34.454Z,97531.94
2022-12-23T01:30:03.446Z,97530.89
2022-12-23T01:32:32.062Z,97533.33
2022-12-23T01:35:02.650Z,97527.80
2022-12-23T01:37:30.949Z,97525.21
2022-12-23T01:39:59.102Z,97527.38
2022-12-23T01:42:45.333Z,97524.98
2022-12-23T01:45:20.239Z,97524.83
2022-12-23T01:48:16.858Z,97519.20
2022-12-23T01:51:05.152Z,97515.48
2022-12-23T01:53:43.473Z,97517.47
2022-12-23T01:56:18.801Z,97514.08
2022-12-23T01:58:59.495Z,97514.58
2022-12-23T02:01:48.496Z,97512.00
2022-12-23T02:04:23.139Z,97510.13
2022-12-23T02:07:10.568Z,97513.30
2022-12-23T02:09:40.587Z,97519.40
2022-12-23T02:12:14.844Z,97512.02
2022-12-23T02:15:17.521Z,97509.44
2022-12-23T02:18:26.462Z,97510.77
2022-12-23T02:21:38.651Z,97507.27
2022-12-23T02:24:31.485Z,97503.51
2022-12-23T02:27:30.359Z,97501.59
2022-12-23T02:30:39.177Z,97504.55
2022-12-23T02:33:30.124Z,97502.17
2022-12-23T02:36:17.834Z,97497.01
2022-12-23T02:39:05.168Z,97483.32
2022-12-23T02:41:53.837Z,97487.33
2022-12-23T02:44:35.547Z,97488.41
2022-12-23T02:47:26.162Z,97493.48
2022-12-23T02:50:06.286Z,97495.95
2022-12-23T02:52:38.009Z,97497.16
2022-12-23T02:55:17.746Z,97493.90
2022-12-23T02:57:51.142Z,97494.77
2022-12-23T03:00:19.933Z,97496.24
2022-12-23T03:02:48.870Z,97494.82
2022-12-23T03:05:29.035Z,97499.91
2022-12-23T03:08:03.048Z,97505.21
2022-12-23T03:11:03.207Z,97511.69
2022-12-23T03:13:46.665Z,97505.16
2022-12-23T03:16:29.006Z,97501.77
2022-12-23T03:19:28.106Z,97503.77
2022-12-23T03:22:15.067Z,97503.19
2022-12-23T03:25:02.071Z,97505.08
2022-12-23T03:27:46.770Z,97496.95
2022-12-23T03:30:19.689Z,97489.64
2022-12-23T03:33:19.653Z,97487.16
2022-12-23T03:35:56.753Z,97491.44
2022-12-23T03:38:26.787Z,97494.83
2022-12-23T03:41:00.936Z,97493.42
2022-12-23T03:43:37.029Z,97493.55
2022-12-23T03:46:14.892Z,97495.61
2022-12-23T03:48:53.169Z,97497.46
2022-12-23T03:51:29.425Z,97498.63
2022-12-23T03:54:10.145Z,97501.48
2022-12-23T03:56:50.018Z,97502.70
2022-12-23T03:59:24.413Z,97502.42
2022-12-23T04:02:18.397Z,97498.61
2022-12-23T04:04:54.317Z,97495.43
2022-12-23T04:07:46.315Z,97492.62
2022-12-23T04:10:14.933Z,97489.11
2022-12-23T04:12:44.586Z,97491.70
2022-12-23T04:15:13.561Z,97493.52
2022-12-23T04:17:41.966Z,97501.73
2022-12-23T04:20:11.099Z,97501.64
2022-12-23T04:22:39.770Z,97501.03
2022-12-23T04:25:08.686Z,97501.45
2022-12-23T04:27:37.176Z,97501.19
2022-12-23T04:30:09.367Z,97504.75
2022-12-23T04:32:38.265Z,97505.04
2022-12-23T04:35:07.273Z,97506.00
2022-12-23T04:37:35.655Z,97511.99
2022-12-23T04:40:06.206Z,97510.70
2022-12-23T04:42:35.066Z,97512.50
2022-12-23T04:45:03.855Z,97511.42
2022-12-23T04:47:32.185Z,97505.87
2022-12-23T04:50:00.367Z,97509.27
2022-12-23T04:52:28.649Z,97510.06
2022-12-23T04:54:56.772Z,97514.48
2022-12-23T04:57:25.013Z,97518.15
2022-12-23T04:59:53.165Z,97514.79
2022-12-23T05:02:21.449Z,97511.09
2022-12-23T05:04:49.815Z,97508.63
2022-12-23T05:07:18.130Z,97505.27
2022-12-23T05:09:46.471Z,97503.86
2022-12-23T05:12:14.668Z,97502.88
2022-12-23T05:14:42.999Z,97507.20
2022-12-23T05:17:12.521Z,97508.61
2022-12-23T05:19:40.597Z,97508.77
2022-12-23T05:22:09.966Z,97515.02
2022-12-23T05:24:38.878Z,97511.38
2022-12-23T05:27:07.142Z,97504.88
2022-12-23T05:29:35.453Z,97505.25
2022-12-23T05:32:05.620Z,97509.58
2022-12-23T05:34:34.198Z,97499.65
2022-12-23T05:37:02.384Z,97502.72
2022-12-23T05:39:30.959Z,97507.33
2022-12-23T05:41:59.167Z,97509.55
2022-12-23T05:44:27.328Z,97511.11
2022-12-23T05:46:55.468Z,97513.35
2022-12-23T05:49:25.425Z,97512.30
2022-12-23T05:51:53.642Z,97512.11
2022-12-23T05:54:21.818Z,97512.27
2022-12-23T05:56:49.981Z,97513.49
2022-12-23T05:59:18.097Z,97517.30
2022-12-23T06:01:46.391Z,97521.29
2022-12-23T06:04:14.803Z,97524.27
2022-12-23T06:06:43.142Z,97521.36
2022-12-23T06:09:11.395Z,97531.72
2022-12-23T06:11:39.529Z,97527.86
2022-12-23T06:14:07.660Z,97524.66
2022-12-23T06:16:36.064Z,97524.27
2022-12-23T06:19:04.573Z,97524.66
2022-12-23T06:21:33.217Z,97529.30
2022-12-23T06:24:01.426Z,97526.63
2022-12-23T06:26:31.504Z,97523.90
2022-12-23T06:29:00.134Z,97520.45
2022-12-23T06:31:28.303Z,97517.02
2022-12-23T06:33:56.538Z,97514.34
2022-12-23T06:36:25.101Z,97511.24
2022-12-23T06:38:53.614Z,97501.73
2022-12-23T06:41:21.881Z,97501.43
2022-12-23T06:43:54.600Z,97511.00
2022-12-23T06:46:23.227Z,97518.17
2022-12-23T06:48:54.798Z,97524.11
2022-12-23T06:51:23.562Z,97523.50
2022-12-23T06:53:52.253Z,97521.49
2022-12-23T06:56:20.782Z,97526.98
2022-12-23T06:58:48.939Z,97526.42
2022-12-23T07:01:17.109Z,97525.31
2022-12-23T07:03:45.735Z,97527.50
2022-12-23T07:06:14.151Z,97530.91
2022-12-23T07:08:42.255Z,97530.00
2022-12-23T07:11:10.676Z,97525.70
2022-12-23T07:13:41.723Z,97529.44
2022-12-23T07:16:09.994Z,97532.33
2022-12-23T07:18:38.171Z,97530.11
2022-12-23T07:21:10.594Z,97512.11
2022-12-23T07:23:46.816Z,97500.55
2022-12-23T07:26:15.861Z,97499.31
2022-12-23T07:28:47.919Z,97512.79
2022-12-23T07:31:16.545Z,97527.64
2022-12-23T07:33:44.836Z,97527.36
2022-12-23T07:36:13.353Z,97527.73
2022-12-23T07:38:41.636Z,97524.34
2022-12-23T07:41:09.757Z,97525.20
2022-12-23T07:43:38.017Z,97524.53
2022-12-23T07:46:08.832Z,97523.49
2022-12-23T07:48:37.083Z,97528.02
2022-12-23T07:51:05.612Z,97529.09
2022-12-23T07:53:33.974Z,97532.01
2022-12-23T07:56:02.205Z,97535.14
2022-12-23T07:58:30.323Z,97537.18
2022-12-23T08:01:10.142Z,97537.30
2022-12-23T08:03:38.397Z,97536.88
2022-12-23T08:06:14.442Z,97534.36
2022-12-23T08:08:45.907Z,97535.81
2022-12-23T08:11:15.787Z,97535.84
2022-12-23T08:13:45.994Z,97541.77
2022-12-23T08:16:14.450Z,97543.77
2022-12-23T08:18:42.761Z,97547.27
2022-12-23T08:21:19.223Z,97547.86
2022-12-23T08:23:48.809Z,97548.02
2022-12-23T08:26:21.340Z,97550.12
2022-12-23T08:28:53.480Z,97553.44
2022-12-23T08:31:26.224Z,97553.58
2022-12-23T08:33:57.103Z,97554.30
2022-12-23T08:36:32.518Z,97552.91
2022-12-23T08:39:05.678Z,97550.05
2022-12-23T08:41:39.104Z,97550.30
2022-12-23T08:44:08.946Z,97546.73
2022-12-23T08:46:37.570Z,97543.35
2022-12-23T08:49:07.430Z,97543.28
2022-12-23T08:51:37.346Z,97540.92
2022-12-23T08:54:06.647Z,97534.59
2022-12-23T08:56:40.170Z,97529.00
2022-12-23T08:59:19.134Z,97521.52
2022-12-23T09:01:48.626Z,97518.35
2022-12-23T09:04:17.148Z,97514.52
2022-12-23T09:06:45.756Z,97516.30
2022-12-23T09:09:15.926Z,97521.14
2022-12-23T09:11:44.339Z,97527.83
2022-12-23T09:14:12.960Z,97528.31
2022-12-23T09:16:41.343Z,97522.48
2022-12-23T09:19:09.552Z,97521.11
2022-12-23T09:21:37.780Z,97518.91
2022-12-23T09:24:06.682Z,97518.30
2022-12-23T09:26:34.977Z,97509.29
2022-12-23T09:29:03.463Z,97502.23
2022-12-23T09:31:36.777Z,97503.65
2022-12-23T09:34:06.802Z,97504.04
2022-12-23T09:36:35.059Z,97501.11
2022-12-23T09:39:03.955Z,97499.60
2022-12-23T09:41:54.917Z,97505.70
2022-12-23T09:44:55.318Z,97501.19
2022-12-23T09:47:26.747Z,97489.59
2022-12-23T09:50:29.746Z,97487.37
2022-12-23T09:53:27.244Z,97488.13
2022-12-23T09:56:16.070Z,97491.41
2022-12-23T09:59:17.421Z,97487.91
2022-12-23T10:02:00.448Z,97486.42
2022-12-23T10:05:03.010Z,97485.30
2022-12-23T10:07:48.524Z,97479.94
2022-12-23T10:10:22.675Z,97475.48
2022-12-23T10:12:53.984Z,97473.12
2022-12-23T10:15:35.037Z,97475.10
2022-12-23T10:18:20.579Z,97476.66
2022-12-23T10:20:57.842Z,97474.96
2022-12-23T10:23:42.754Z,97469.02
2022-12-23T10:26:34.510Z,97468.17
2022-12-23T10:29:19.424Z,97467.86
2022-12-23T10:32:06.482Z,97470.83
2022-12-23T10:34:59.966Z,97471.55
2022-12-23T10:37:53.887Z,97469.58
2022-12-23T10:40:53.016Z,97467.92
2022-12-23T10:43:30.209Z,97469.42
2022-12-23T10:46:26.707Z,97467.27
2022-12-23T10:49:18.667Z,97463.63
2022-12-23T10:51:57.618Z,97463.84
2022-12-23T10:54:35.052Z,97460.68
2022-12-23T10:57:07.262Z,97458.58
2022-12-23T10:59:37.580Z,97462.85
2022-12-23T11:02:11.920Z,97458.55
2022-12-23T11:04:50.715Z,97458.20
2022-12-23T11:07:44.759Z,97456.07
2022-12-23T11:10:25.779Z,97457.60
2022-12-23T11:12:55.005Z,97456.77
2022-12-23T11:15:38.652Z,97451.41
2022-12-23T11:18:12.844Z,97445.09
2022-12-23T11:20:49.395Z,97442.41
2022-12-23T11:23:35.890Z,97445.67
2022-12-23T11:26:10.061Z,97449.61
2022-12-23T11:28:48.434Z,97446.25
2022-12-23T11:31:28.177Z,97443.41
2022-12-23T11:34:01.253Z,97442.89
2022-12-23T11:36:31.516Z,97441.18
2022-12-23T11:39:22.926Z,97440.35
2022-12-23T11:42:02.970Z,97443.38
2022-12-23T11:44:39.363Z,97441.81
2022-12-23T11:47:23.670Z,97435.77
2022-12-23T11:49:57.467Z,97427.27
2022-12-23T11:52:29.082Z,97425.59
2022-12-23T11:55:03.005Z,97426.16
2022-12-23T11:57:48.504Z,97425.34
2022-12-23T12:00:34.943Z,97427.59
2022-12-23T12:03:06.248Z,97429.61
2022-12-23T12:05:47.641Z,97424.33
2022-12-23T12:08:22.618Z,97428.52
2022-12-23T12:10:53.368Z,97435.27
2022-12-23T12:13:36.604Z,97443.32
2022-12-23T12:16:30.656Z,97442.94
2022-12-23T12:19:07.623Z,97437.20
2022-12-23T12:21:39.104Z,97444.21
2022-12-23T12:24:39.005Z,97454.70
2022-12-23T12:27:10.389Z,97448.56
2022-12-23T12:30:01.078Z,97446.98
2022-12-23T12:33:05.373Z,97451.69
2022-12-23T12:36:07.173Z,97453.11
2022-12-23T12:38:48.960Z,97455.42
2022-12-23T12:41:29.428Z,97459.36
2022-12-23T12:44:07.803Z,97461.01
2022-12-23T12:46:47.748Z,97462.25
2022-12-23T12:49:38.622Z,97460.73
2022-12-23T12:52:20.703Z,97459.10
2022-12-23T12:55:28.475Z,97457.68
2022-12-23T12:57:56.720Z,97453.45
2022-12-23T13:00:25.420Z,97449.58
2022-12-23T13:03:47.553Z,97455.02
2022-12-23T13:06:56.819Z,97460.27
2022-12-23T13:09:57.374Z,97456.50
2022-12-23T13:13:07.798Z,97445.39
2022-12-23T13:15:46.719Z,97443.20
2022-12-23T13:18:43.765Z,97445.36
2022-12-23T13:21:38.776Z,97442.27
2022-12-23T13:24:22.338Z,97443.17
2022-12-23T13:27:17.691Z,97450.90
2022-12-23T13:30:07.002Z,97456.90
2022-12-23T13:32:56.270Z,97450.42
2022-12-23T13:36:02.927Z,97451.73
2022-12-23T13:39:01.110Z,97453.19
2022-12-23T13:41:48.567Z,97454.98
2022-12-23T13:44:18.797Z,97458.48
2022-12-23T13:47:25.009Z,97461.50
2022-12-23T13:50:09.564Z,97460.13
2022-12-23T13:53:24.888Z,97455.70
2022-12-23T13:56:24.243Z,97457.73
2022-12-23T13:58:53.114Z,97463.59
2022-12-23T14:01:41.576Z,97463.51
2022-12-23T14:04:59.229Z,97462.29
2022-12-23T14:07:30.819Z,97459.28
2022-12-23T14:10:19.992Z,97459.56
2022-12-23T14:12:58.388Z,97464.81
2022-12-23T14:16:04.682Z,97468.55
2022-12-23T14:19:21.102Z,97471.25
2022-12-23T14:22:36.187Z,97472.36
2022-12-23T14:25:39.681Z,97466.48
2022-12-23T14:28:43.530Z,97458.85
2022-12-23T14:31:55.382Z,97458.71
2022-12-23T14:34:33.764Z,97461.87
2022-12-23T14:37:44.549Z,97456.66
2022-12-23T14:40:37.432Z,97454.38
2022-12-23T14:43:45.937Z,97453.88
2022-12-23T14:46:35.929Z,97457.40
2022-12-23T14:49:38.425Z,97454.63
2022-12-23T14:52:39.360Z,97454.11
2022-12-23T14:55:32.826Z,97441.13
2022-12-23T14:58:10.764Z,97437.13
2022-12-23T15:00:57.177Z,97438.82
2022-12-23T15:03:42.341Z,97435.66
2022-12-23T15:06:32.235Z,97437.73
2022-12-23T15:09:01.881Z,97440.50
2022-12-23T15:11:34.016Z,97439.23
2022-12-23T15:14:11.636Z,97444.06
2022-12-23T15:16:40.527Z,97457.35
2022-12-23T15:19:22.843Z,97463.17
2022-12-23T15:22:15.364Z,97459.48
2022-12-23T15:24:49.272Z,97455.24
2022-12-23T15:27:29.734Z,97451.52
2022-12-23T15:29:58.754Z,97450.65
2022-12-23T15:32:29.292Z,97447.53
2022-12-23T15:35:06.187Z,97442.27
2022-12-23T15:37:35.156Z,97433.42
2022-12-23T15:40:12.195Z,97427.00
2022-12-23T15:42:48.965Z,97426.84
2022-12-23T15:45:23.139Z,97424.75
2022-12-23T15:47:51.418Z,97427.93
2022-12-23T15:50:21.030Z,97430.09
2022-12-23T15:52:50.956Z,97434.38
2022-12-23T15:55:32.243Z,97435.05
2022-12-23T15:58:02.676Z,97426.05
2022-12-23T16:00:49.403Z,97423.91
2022-12-23T16:03:34.598Z,97428.14
2022-12-23T16:06:25.446Z,97428.88
2022-12-23T16:09:06.930Z,97422.34
2022-12-23T16:11:54.727Z,97425.27
2022-12-23T16:14:41.997Z,97418.55
2022-12-23T16:17:16.184Z,97418.59
2022-12-23T16:19:50.150Z,97417.02
2022-12-23T16:22:31.211Z,97414.54
2022-12-23T16:25:05.135Z,97409.91
2022-12-23T16:27:58.262Z,97406.80
2022-12-23T16:30:33.637Z,97407.29
2022-12-23T16:33:22.496Z,97408.81
2022-12-23T16:35:53.573Z,97404.45
2022-12-23T16:38:26.627Z,97405.41
2022-12-23T16:40:56.997Z,97404.45
2022-12-23T16:43:26.174Z,97404.82
2022-12-23T16:45:57.511Z,97407.28
2022-12-23T16:48:33.147Z,97410.23
2022-12-23T16:51:05.865Z,97412.64
2022-12-23T16:53:34.940Z,97408.86
2022-12-23T16:56:09.896Z,97408.95
2022-12-23T16:58:38.267Z,97407.95
2022-12-23T17:01:06.637Z,97400.73
2022-12-23T17:03:34.975Z,97395.77
2022-12-23T17:06:03.180Z,97390.10
2022-12-23T17:08:31.354Z,97388.58
2022-12-23T17:10:59.514Z,97386.23
2022-12-23T17:13:27.670Z,97386.66
2022-12-23T17:15:55.782Z,97387.80
2022-12-23T17:18:23.915Z,97384.25
2022-12-23T17:20:52.132Z,97384.23
2022-12-23T17:23:32.569Z,97381.90
2022-12-23T17:26:00.787Z,97387.63
2022-12-23T17:28:32.647Z,97393.32
2022-12-23T17:31:01.086Z,97389.84
2022-12-23T17:33:32.367Z,97390.54
2022-12-23T17:36:00.576Z,97386.61
2022-12-23T17:38:31.836Z,97390.08
2022-12-23T17:40:59.956Z,97393.02
2022-12-23T17:43:28.155Z,97393.73
2022-12-23T17:45:56.464Z,97395.20
2022-12-23T17:48:31.082Z,97391.08
2022-12-23T17:50:59.778Z,97395.26
2022-12-23T17:53:27.978Z,97401.56
2022-12-23T17:55:56.095Z,97400.36
2022-12-23T17:58:24.289Z,97406.09
2022-12-23T18:00:52.416Z,97402.14
2022-12-23T18:03:23.674Z,97399.21
2022-12-23T18:06:00.883Z,97396.15
2022-12-23T18:08:29.669Z,97395.33
2022-12-23T18:10:59.440Z,97387.20
2022-12-23T18:13:27.620Z,97387.92
2022-12-23T18:15:55.805Z,97389.66
2022-12-23T18:18:32.103Z,97386.52
2022-12-23T18:21:05.542Z,97384.59
2022-12-23T18:23:34.618Z,97380.20
2022-12-23T18:26:03.117Z,97383.93
2022-12-23T18:28:31.243Z,97385.05
2022-12-23T18:30:59.616Z,97378.38
2022-12-23T18:33:29.583Z,97372.91
2022-12-23T18:35:57.948Z,97366.11
2022-12-23T18:38:26.120Z,97360.36
2022-12-23T18:40:56.703Z,97360.69
2022-12-23T18:43:25.770Z,97361.41
2022-12-23T18:45:54.459Z,97357.47
2022-12-23T18:48:22.768Z,97357.58
2022-12-23T18:50:50.886Z,97360.90
2022-12-23T18:53:25.110Z,97363.04
2022-12-23T18:55:54.944Z,97364.46
2022-12-23T18:58:23.396Z,97364.96
2022-12-23T19:00:55.367Z,97366.68
2022-12-23T19:03:31.700Z,97371.66
2022-12-23T19:06:06.750Z,97368.34
2022-12-23T19:08:37.023Z,97369.46
2022-12-23T19:11:18.621Z,97373.38
2022-12-23T19:13:47.951Z,97377.91
2022-12-23T19:16:19.570Z,97376.61
2022-12-23T19:18:49.545Z,97372.71
2022-12-23T19:21:18.871Z,97363.92
2022-12-23T19:23:47.071Z,97362.56
2022-12-23T19:26:15.621Z,97374.22
2022-12-23T19:28:43.835Z,97374.31
2022-12-23T19:31:14.738Z,97371.11
2022-12-23T19:33:47.488Z,97366.84
2022-12-23T19:36:25.284Z,97367.30
2022-12-23T19:38:53.592Z,97363.25
2022-12-23T19:41:21.813Z,97362.65
2022-12-23T19:43:50.121Z,97359.84
2022-12-23T19:46:18.595Z,97361.50
2022-12-23T19:48:52.408Z,97362.46
2022-12-23T19:51:20.713Z,97360.52
2022-12-23T19:53:51.373Z,97355.20
2022-12-23T19:56:23.262Z,97355.95
2022-12-23T19:58:51.429Z,97362.63
2022-12-23T20:01:24.173Z,97365.83
2022-12-23T20:03:55.257Z,97360.89
2022-12-23T20:06:27.881Z,97357.77
2022-12-23T20:09:00.817Z,97367.98
2022-12-23T20:11:33.252Z,97359.29
2022-12-23T20:14:02.545Z,97348.70
2022-12-23T20:16:31.679Z,97355.99
2022-12-23T20:18:59.979Z,97359.58
2022-12-23T20:21:28.298Z,97356.77
2022-12-23T20:23:56.692Z,97357.90
2022-12-23T20:26:25.037Z,97364.04
2022-12-23T20:28:53.526Z,97365.42
2022-12-23T20:31:25.065Z,97359.70
2022-12-23T20:33:55.171Z,97363.54
2022-12-23T20:36:30.257Z,97359.35
2022-12-23T20:38:58.912Z,97363.16
2022-12-23T20:41:28.900Z,97367.84
2022-12-23T20:46:46.471Z,97373.02
2022-12-23T20:49:14.607Z,97376.66
2022-12-23T20:51:42.795Z,97378.52
2022-12-23T20:54:11.054Z,97377.16
2022-12-23T20:56:39.162Z,97377.80
2022-12-23T20:59:07.311Z,97384.86
2022-12-23T21:01:40.802Z,97383.44
2022-12-23T21:04:18.122Z,97388.29
2022-12-23T21:06:46.297Z,97388.76
2022-12-23T21:09:15.727Z,97389.21
2022-12-23T21:11:47.128Z,97389.66
2022-12-23T21:14:16.175Z,97390.98
2022-12-23T21:16:44.964Z,97390.02
2022-12-23T21:19:20.313Z,97396.39
2022-12-23T21:21:49.652Z,97399.52
2022-12-23T21:24:19.171Z,97398.95
2022-12-23T21:26:55.661Z,97393.55
2022-12-23T21:29:25.870Z,97388.81
2022-12-23T21:31:55.207Z,97397.15
2022-12-23T21:34:23.816Z,97395.04
2022-12-23T21:36:51.983Z,97396.28
2022-12-23T21:39:20.116Z,97399.98
2022-12-23T21:41:51.031Z,97391.14
2022-12-23T21:44:19.275Z,97384.45
2022-12-23T21:46:51.029Z,97382.29
2022-12-23T21:49:20.411Z,97381.28
2022-12-23T21:51:48.596Z,97388.93
2022-12-23T21:54:16.732Z,97386.84
2022-12-23T21:56:44.966Z,97382.67
2022-12-23T21:59:15.014Z,97372.79
2022-12-23T22:01:43.474Z,97374.52
2022-12-23T22:04:12.435Z,97375.23
2022-12-23T22:06:43.904Z,97368.84
2022-12-23T22:09:18.731Z,97367.02
2022-12-23T22:11:48.203Z,97359.38
2022-12-23T22:14:19.700Z,97357.52
2022-12-23T22:16:48.077Z,97369.11
2022-12-23T22:19:16.920Z,97371.09
2022-12-23T22:21:45.107Z,97370.23
2022-12-23T22:24:13.297Z,97366.94
2022-12-23T22:26:41.959Z,97359.11
2022-12-23T22:29:11.378Z,97356.25
2022-12-23T22:31:50.664Z,97355.80
2022-12-23T22:34:22.224Z,97359.98
2022-12-23T22:36:51.086Z,97351.99
2022-12-23T22:39:21.912Z,97345.98
2022-12-23T22:41:51.838Z,97359.59
2022-12-23T22:44:20.961Z,97353.73
2022-12-23T22:46:49.865Z,97345.62
2022-12-23T22:49:18.571Z,97339.81
2022-12-23T22:51:46.767Z,97339.61
2022-12-23T22:54:14.992Z,97336.96
2022-12-23T22:56:45.852Z,97331.63
2022-12-23T22:59:25.654Z,97329.99
2022-12-23T23:01:54.512Z,97322.55
2022-12-23T23:04:23.054Z,97321.53
2022-12-23T23:06:51.156Z,97328.83
2022-12-23T23:09:21.559Z,97322.48
2022-12-23T23:11:51.222Z,97315.60
2022-12-23T23:14:20.310Z,97323.32
2022-12-23T23:16:48.634Z,97325.30
2022-12-23T23:19:20.370Z,97334.20
2022-12-23T23:21:48.949Z,97337.34
2022-12-23T23:24:17.638Z,97342.42
2022-12-23T23:26:45.888Z,97328.66
2022-12-23T23:29:14.403Z,97321.02
2022-12-23T23:31:43.939Z,97322.08
2022-12-23T23:34:13.779Z,97313.77
2022-12-23T23:36:42.187Z,97317.45
2022-12-23T23:39:12.733Z,97326.14
2022-12-23T23:41:41.858Z,97330.70
2022-12-23T23:44:11.780Z,97335.73
2022-12-23T23:46:40.407Z,97331.60
2022-12-23T23:49:08.659Z,97325.70
2022-12-23T23:51:37.225Z,97330.57
2022-12-23T23:54:06.981Z,97337.40
2022-12-23T23:56:38.533Z,97338.11
2022-12-23T23:59:08.967Z,97339.48
